Main page
METAR-TAF:

METAR-TAF

Airports :

King Abdulaziz International Airport

Jeddah, Saudi Arabia

latitude: 21-42N, longitude: 039-11E, elevation: 15 m

Current weather observation

The report was made 58 minutes ago, at 21:00 UTC
Wind 5 kt from the North
Temperature 31°C
Humidity 55%
Pressure 1002 hPa
Visibility 10 km or more
no clouds below 1500 m and no cumulonimbus

METAR: OEJN 172100Z 36005KT CAVOK 31/21 Q1002 NOSIG

Time: 00:58 (21:58 UTC)

Forecast

The report was made 4 hours and 58 minutes ago, at 17:00 UTC
Forecast valid from 17 at 18 UTC to 18 at 24 UTC
Wind 8 kt from the North/Northwest
Visibility 10 km or more
no clouds below 1500 m and no cumulonimbus
Becoming
from 18 at 04 UTC to 18 at 06 UTC
Wind 10 kt from the East
Becoming
from 18 at 07 UTC to 18 at 09 UTC
Wind 14 kt from the West

TAF: OEJN 171700Z 1718/1824 33008KT CAVOK BECMG 1804/1806 08010KT BECMG 1807/1809 27014KT

Weather observations and forecasts of more than 4000 airports (METAR and TAF reports).

The available stations are represented by yellow and red dots on the map.

Hover mouse over dot to see the name of the station.

Then click to see weather observations and forecasts.

To change the map : click on the green buttons with a black cross to zoom in, on the green button with a dash to zoom out, or on the green arrows for adjacent maps.


METAR-TAF: